Airfield :
LOGIN :

Register | Disclaimer

   EN    FR    IT 

 










Legend :    VFR   Marginal VFR   IFR   Intensive IFR   Very Intensive IFR
Visi :
Ceiling :
>= 8 km
>= 3000ft
5 to 8 km
1000 to 3000 ft
1500m to 5 km
500 to 1000 ft
800 to 1500m
200 to 500 ft
< 800m
< 200 ft
Symbols :   Thunderstorms  Fog  Heavy snow  Heavy precipitations  Wind > 20 kt
SIGMETs :     Misc.  Thunderstorms  Icing  Turbulence  Mountain Waves  Volcanic Ashes







- Airport Elevation : 472 ft
- IATA code : GME


UMGG - Gomel

CURRENT METAR :
  • 210230Z 28003MPS CAVOK 16/11 Q1018 R28/D NOSIG

EXPIRED METARs :
  • 210200Z 28003MPS CAVOK 16/11 Q1017 R28/CLRD// NOSIG
  • 210130Z 28004MPS CAVOK 16/12 Q1017 R28/CLRD// NOSIG
  • 210100Z 27004MPS CAVOK 16/12 Q1017 R28/D NOSIG
  • 210030Z 27004MPS CAVOK 17/12 Q1017 R28/CLRD// NOSIG
  • 210000Z 26003MPS CAVOK 17/12 Q1017 R28/D NOSIG

TAF TAF UMGG
Valid from the 21 at 00:00 until the 22 at 00:00 UTC


202300Z 2100/2124 27005MPS 9999 SCT030 TX28/2112Z TN15/2102Z
BECMG 2111/2113 24006MPS
BECMG 2119/2121 18006G11MPS
No reported NOTAMs for that airfield.



MET'MAP, your aeronautical weather chart ! - Copyright ORBIFLY December 2007 - Disclaimer

ORBIFLY MET'MAP TEAM :

Programming & Development : Alexandra Zaïnal
Concept & Development : Baudouin d'Aumeries
Co-Development & Prog : Marc-Olivier Méhu
Technical & hardware support : Manuel Goepfert

Contact : metmap@orbifly.com




SOURCES & CREDITS :

   NOAA